createdAt,value
2022-12-03T00:00:31.671Z,99793.97
2022-12-03T00:02:58.647Z,99794.22
2022-12-03T00:05:25.603Z,99794.72
2022-12-03T00:07:52.500Z,99798.97
2022-12-03T00:10:19.735Z,99803.78
2022-12-03T00:12:46.936Z,99791.63
2022-12-03T00:15:13.895Z,99798.09
2022-12-03T00:17:40.803Z,99784.88
2022-12-03T00:20:08.183Z,99795.09
2022-12-03T00:22:35.036Z,99796.63
2022-12-03T00:25:01.918Z,99790.44
2022-12-03T00:27:28.784Z,99770.84
2022-12-03T00:29:55.635Z,99802.78
2022-12-03T00:32:22.514Z,99802.19
2022-12-03T00:34:49.395Z,99798.94
2022-12-03T00:37:16.306Z,99800.81
2022-12-03T00:39:43.270Z,99801.31
2022-12-03T00:42:10.116Z,99799.69
2022-12-03T00:44:36.981Z,99805.31
2022-12-03T00:47:04.048Z,99802.06
2022-12-03T00:49:31.288Z,99804.50
2022-12-03T00:51:58.142Z,99801.00
2022-12-03T00:54:30.223Z,99797.19
2022-12-03T00:56:58.823Z,99788.53
2022-12-03T00:59:25.879Z,99790.66
2022-12-03T01:01:52.811Z,99784.88
2022-12-03T01:04:19.829Z,99791.41
2022-12-03T01:06:46.860Z,99793.53
2022-12-03T01:09:13.726Z,99796.22
2022-12-03T01:11:41.495Z,99793.75
2022-12-03T01:14:14.047Z,99788.06
2022-12-03T01:16:41.462Z,99749.59
2022-12-03T01:19:10.455Z,99788.88
2022-12-03T01:21:37.553Z,99782.94
2022-12-03T01:24:04.837Z,99797.28
2022-12-03T01:26:31.693Z,99791.91
2022-12-03T01:28:58.587Z,99751.75
2022-12-03T01:31:44.161Z,99780.56
2022-12-03T01:34:11.155Z,99781.38
2022-12-03T01:36:38.055Z,99780.56
2022-12-03T01:39:04.994Z,99785.38
2022-12-03T01:41:32.091Z,99745.22
2022-12-03T01:43:59.034Z,99781.56
2022-12-03T01:46:28.917Z,99770.69
2022-12-03T01:48:55.802Z,99776.66
2022-12-03T01:51:22.678Z,99781.44
2022-12-03T01:53:51.133Z,99784.41
2022-12-03T01:56:18.321Z,99752.38
2022-12-03T01:58:45.490Z,99780.06
2022-12-03T02:01:14.624Z,99759.91
2022-12-03T02:03:41.673Z,99744.75
2022-12-03T02:06:16.464Z,99766.22
2022-12-03T02:08:43.946Z,99771.84
2022-12-03T02:11:19.037Z,99776.75
2022-12-03T02:13:46.039Z,99745.78
2022-12-03T02:16:12.918Z,99770.47
2022-12-03T02:18:39.823Z,99782.28
2022-12-03T02:21:18.949Z,99753.78
2022-12-03T02:24:01.232Z,99779.25
2022-12-03T02:26:28.199Z,99754.75
2022-12-03T02:28:55.074Z,99785.69
2022-12-03T02:31:22.446Z,99787.56
2022-12-03T02:33:49.486Z,99786.41
2022-12-03T02:36:16.413Z,99788.13
2022-12-03T02:38:43.362Z,99792.28
2022-12-03T02:41:31.864Z,99784.22
2022-12-03T02:43:58.804Z,99782.84
2022-12-03T02:46:25.691Z,99792.53
2022-12-03T02:48:52.642Z,99748.56
2022-12-03T02:51:19.496Z,99788.72
2022-12-03T02:53:47.563Z,99791.16
2022-12-03T02:56:18.479Z,99784.38
2022-12-03T02:58:45.786Z,99775.94
2022-12-03T03:01:12.823Z,99776.75
2022-12-03T03:03:39.934Z,99778.03
2022-12-03T03:06:07.127Z,99779.19
2022-12-03T03:08:33.986Z,99791.56
2022-12-03T03:11:01.616Z,99793.19
2022-12-03T03:13:29.245Z,99756.56
2022-12-03T03:15:56.131Z,99796.72
2022-12-03T03:18:23.026Z,99789.47
2022-12-03T03:20:49.884Z,99757.19
2022-12-03T03:23:21.245Z,99786.19
2022-12-03T03:25:52.308Z,99782.78
2022-12-03T03:28:22.035Z,99776.06
2022-12-03T03:30:48.888Z,99780.09
2022-12-03T03:33:15.867Z,99735.31
2022-12-03T03:35:43.208Z,99772.16
2022-12-03T03:38:10.182Z,99768.19
2022-12-03T03:40:37.839Z,99773.41
2022-12-03T03:43:04.753Z,99771.22
2022-12-03T03:45:31.706Z,99708.97
2022-12-03T03:47:58.637Z,99763.38
2022-12-03T03:50:26.863Z,99764.13
2022-12-03T03:52:53.717Z,99768.34
2022-12-03T03:55:20.711Z,99765.09
2022-12-03T03:57:47.624Z,99743.81
2022-12-03T04:00:16.901Z,99773.41
2022-12-03T04:02:44.037Z,99755.38
2022-12-03T04:05:20.270Z,99781.13
2022-12-03T04:07:47.361Z,99778.53
2022-12-03T04:10:33.078Z,99787.47
2022-12-03T04:13:00.145Z,99779.91
2022-12-03T04:15:27.075Z,99781.44
2022-12-03T04:18:13.396Z,99770.22
2022-12-03T04:20:41.327Z,99787.63
2022-12-03T04:23:08.364Z,99776.31
2022-12-03T04:25:53.862Z,99748.97
2022-12-03T04:28:39.400Z,99732.91
2022-12-03T04:31:26.339Z,99759.81
2022-12-03T04:34:12.029Z,99764.81
2022-12-03T04:36:39.073Z,99772.56
2022-12-03T04:39:05.982Z,99747.88
2022-12-03T04:41:32.909Z,99768.00
2022-12-03T04:44:18.602Z,99770.69
2022-12-03T04:46:45.450Z,99725.16
2022-12-03T04:49:12.900Z,99765.78
2022-12-03T04:51:39.797Z,99765.25
2022-12-03T04:54:06.718Z,99707.31
2022-12-03T04:56:33.525Z,99765.72
2022-12-03T04:59:00.398Z,99764.88
2022-12-03T05:01:27.298Z,99764.66
2022-12-03T05:03:54.236Z,99765.72
2022-12-03T05:06:21.134Z,99725.91
2022-12-03T05:08:47.997Z,99763.69
2022-12-03T05:11:14.908Z,99755.63
2022-12-03T05:13:43.072Z,99762.41
2022-12-03T05:16:10.488Z,99763.53
2022-12-03T05:18:37.476Z,99769.28
2022-12-03T05:21:04.640Z,99769.06
2022-12-03T05:23:32.222Z,99763.84
2022-12-03T05:25:59.129Z,99758.47
2022-12-03T05:28:26.087Z,99756.03
2022-12-03T05:30:53.021Z,99756.50
2022-12-03T05:33:20.622Z,99754.63
2022-12-03T05:35:47.706Z,99759.19
2022-12-03T05:38:14.567Z,99759.44
2022-12-03T05:40:41.437Z,99763.75
2022-12-03T05:43:08.354Z,99765.03
2022-12-03T05:45:42.901Z,99760.75
2022-12-03T05:48:11.308Z,99757.47
2022-12-03T05:50:38.793Z,99767.50
2022-12-03T05:53:14.923Z,99732.78
2022-12-03T05:55:41.946Z,99733.19
2022-12-03T05:58:08.900Z,99760.31
2022-12-03T06:00:42.809Z,99747.84
2022-12-03T06:03:10.444Z,99733.91
2022-12-03T06:05:37.817Z,99753.13
2022-12-03T06:08:04.938Z,99766.53
2022-12-03T06:10:32.579Z,99766.53
2022-12-03T06:12:59.513Z,99756.44
2022-12-03T06:15:26.416Z,99758.38
2022-12-03T06:17:53.379Z,99769.13
2022-12-03T06:20:20.363Z,99739.78
2022-12-03T06:22:47.639Z,99764.81
2022-12-03T06:25:14.679Z,99731.16
2022-12-03T06:27:41.577Z,99759.81
2022-12-03T06:30:11.509Z,99735.38
2022-12-03T06:32:38.345Z,99729.81
2022-12-03T06:35:05.551Z,99727.81
2022-12-03T06:37:32.447Z,99774.03
2022-12-03T06:39:59.309Z,99771.47
2022-12-03T06:42:26.205Z,99784.56
2022-12-03T06:44:53.405Z,99782.78
2022-12-03T06:47:20.389Z,99785.81
2022-12-03T06:49:47.226Z,99713.75
2022-12-03T06:52:14.140Z,99766.34
2022-12-03T06:54:40.994Z,99769.59
2022-12-03T06:57:07.844Z,99773.50
2022-12-03T06:59:37.536Z,99773.22
2022-12-03T07:02:04.995Z,99773.00
2022-12-03T07:04:32.002Z,99774.72
2022-12-03T07:06:58.998Z,99765.63
2022-12-03T07:09:25.911Z,99770.41
2022-12-03T07:11:52.845Z,99784.06
2022-12-03T07:14:19.963Z,99777.16
2022-12-03T07:16:47.650Z,99762.34
2022-12-03T07:19:14.592Z,99754.78
2022-12-03T07:21:41.585Z,99765.28
2022-12-03T07:24:08.486Z,99766.44
2022-12-03T07:26:35.462Z,99755.47
2022-12-03T07:29:02.388Z,99759.13
2022-12-03T07:31:29.373Z,99751.97
2022-12-03T07:33:56.298Z,99741.84
2022-12-03T07:36:23.242Z,99733.28
2022-12-03T07:38:50.125Z,99759.81
2022-12-03T07:41:16.974Z,99764.47
2022-12-03T07:43:45.304Z,99756.91
2022-12-03T07:46:12.366Z,99762.59
2022-12-03T07:48:39.254Z,99757.47
2022-12-03T07:51:06.721Z,99751.19
2022-12-03T07:53:33.648Z,99763.31
2022-12-03T07:56:01.282Z,99753.53
2022-12-03T07:58:28.400Z,99757.38
2022-12-03T08:00:55.318Z,99760.88
2022-12-03T08:03:22.202Z,99758.44
2022-12-03T08:05:49.166Z,99761.91
2022-12-03T08:08:16.183Z,99760.06
2022-12-03T08:10:43.158Z,99763.78
2022-12-03T08:13:13.051Z,99729.56
2022-12-03T08:15:39.951Z,99762.75
2022-12-03T08:18:20.536Z,99763.22
2022-12-03T08:20:50.310Z,99766.72
2022-12-03T08:23:19.673Z,99770.44
2022-12-03T08:25:46.810Z,99772.31
2022-12-03T08:28:20.277Z,99773.38
2022-12-03T08:31:07.467Z,99772.31
2022-12-03T08:33:35.743Z,99753.50
2022-12-03T08:36:11.597Z,99771.41
2022-12-03T08:38:41.144Z,99777.00
2022-12-03T08:41:14.880Z,99775.47
2022-12-03T08:43:44.791Z,99773.28
2022-12-03T08:46:13.990Z,99777.59
2022-12-03T08:48:47.072Z,99777.81
2022-12-03T08:51:23.774Z,99775.25
2022-12-03T08:54:02.069Z,99782.50
2022-12-03T08:56:30.217Z,99777.81
2022-12-03T08:58:59.259Z,99780.38
2022-12-03T09:01:44.442Z,99752.75
2022-12-03T09:04:14.376Z,99780.69
2022-12-03T09:06:41.255Z,99751.94
2022-12-03T09:09:08.216Z,99785.72
2022-12-03T09:11:35.145Z,99777.56
2022-12-03T09:14:02.033Z,99777.19
2022-12-03T09:16:28.973Z,99773.56
2022-12-03T09:18:55.916Z,99767.16
2022-12-03T09:21:22.841Z,99768.78
2022-12-03T09:23:49.737Z,99768.78
2022-12-03T09:26:16.610Z,99768.19
2022-12-03T09:28:43.505Z,99762.59
2022-12-03T09:31:10.383Z,99779.84
2022-12-03T09:33:37.226Z,99764.00
2022-12-03T09:36:04.456Z,99764.00
2022-12-03T09:38:31.358Z,99749.91
2022-12-03T09:40:58.260Z,99764.56
2022-12-03T09:43:33.514Z,99763.19
2022-12-03T09:46:12.101Z,99758.06
2022-12-03T09:48:39.013Z,99754.88
2022-12-03T09:51:06.113Z,99755.47
2022-12-03T09:53:36.700Z,99756.06
2022-12-03T09:56:09.093Z,99753.13
2022-12-03T09:58:35.972Z,99748.94
2022-12-03T10:01:02.993Z,99748.56
2022-12-03T10:03:30.580Z,99745.41
2022-12-03T10:05:57.606Z,99738.41
2022-12-03T10:08:32.370Z,99744.34
2022-12-03T10:10:59.584Z,99740.84
2022-12-03T10:13:30.528Z,99733.38
2022-12-03T10:15:58.771Z,99737.94
2022-12-03T10:18:30.507Z,99740.59
2022-12-03T10:20:57.834Z,99730.94
2022-12-03T10:23:26.607Z,99737.94
2022-12-03T10:26:03.108Z,99746.56
2022-12-03T10:28:29.878Z,99736.06
2022-12-03T10:30:57.322Z,99747.22
2022-12-03T10:33:29.388Z,99739.97
2022-12-03T10:35:56.271Z,99730.31
2022-12-03T10:38:23.289Z,99735.19
2022-12-03T10:40:50.324Z,99733.31
2022-12-03T10:43:20.164Z,99732.25
2022-12-03T10:46:10.051Z,99733.16
2022-12-03T10:48:36.976Z,99703.53
2022-12-03T10:51:04.705Z,99722.56
2022-12-03T10:53:33.525Z,99719.88
2022-12-03T10:56:02.008Z,99721.03
2022-12-03T10:58:30.474Z,99723.69
2022-12-03T11:00:58.175Z,99715.00
2022-12-03T11:03:26.932Z,99705.16
2022-12-03T11:05:54.785Z,99718.97
2022-12-03T11:08:22.530Z,99709.31
2022-12-03T11:11:06.266Z,99716.63
2022-12-03T11:13:33.278Z,99721.19
2022-12-03T11:16:03.489Z,99695.94
2022-12-03T11:18:36.343Z,99718.00
2022-12-03T11:21:03.223Z,99721.53
2022-12-03T11:23:45.157Z,99727.00
2022-12-03T11:26:19.798Z,99725.03
2022-12-03T11:28:46.901Z,99719.16
2022-12-03T11:31:36.236Z,99713.31
2022-12-03T11:34:18.369Z,99711.69
2022-12-03T11:37:09.994Z,99707.72
2022-12-03T11:39:52.222Z,99699.66
2022-12-03T11:42:30.285Z,99697.28
2022-12-03T11:45:06.068Z,99691.75
2022-12-03T11:48:05.112Z,99693.03
2022-12-03T11:50:39.709Z,99684.97
2022-12-03T11:53:17.475Z,99674.00
2022-12-03T11:55:48.470Z,99682.66
2022-12-03T11:58:24.630Z,99657.41
2022-12-03T12:00:52.451Z,99673.69
2022-12-03T12:03:24.010Z,99679.16
2022-12-03T12:06:10.920Z,99649.59
2022-12-03T12:08:50.852Z,99685.88
2022-12-03T12:11:30.544Z,99685.06
2022-12-03T12:13:58.827Z,99687.84
2022-12-03T12:16:52.814Z,99687.84
2022-12-03T12:19:37.149Z,99681.97
2022-12-03T12:22:19.511Z,99684.66
2022-12-03T12:24:47.425Z,99675.00
2022-12-03T12:27:18.944Z,99664.25
2022-12-03T12:29:54.337Z,99664.78
2022-12-03T12:32:50.094Z,99656.72
2022-12-03T12:35:24.153Z,99653.22
2022-12-03T12:37:59.037Z,99620.16
2022-12-03T12:40:31.307Z,99647.06
2022-12-03T12:43:09.938Z,99615.09
2022-12-03T12:45:41.565Z,99653.81
2022-12-03T12:48:26.720Z,99655.19
2022-12-03T12:51:13.029Z,99657.88
2022-12-03T12:53:40.483Z,99664.06
2022-12-03T12:56:16.698Z,99648.63
2022-12-03T12:58:43.596Z,99646.63
2022-12-03T13:01:29.783Z,99650.72
2022-12-03T13:03:56.783Z,99649.88
2022-12-03T13:06:27.927Z,99655.31
2022-12-03T13:08:54.859Z,99654.44
2022-12-03T13:11:38.808Z,99655.25
2022-12-03T13:14:19.847Z,99658.28
2022-12-03T13:16:48.058Z,99651.25
2022-12-03T13:19:27.887Z,99644.84
2022-12-03T13:21:55.730Z,99640.38
2022-12-03T13:24:47.884Z,99639.47
2022-12-03T13:27:27.172Z,99635.13
2022-12-03T13:30:16.185Z,99639.38
2022-12-03T13:32:43.046Z,99634.75
2022-12-03T13:35:09.948Z,99638.00
2022-12-03T13:37:37.011Z,99638.09
2022-12-03T13:40:30.691Z,99644.50
2022-12-03T13:42:58.011Z,99641.81
2022-12-03T13:45:41.650Z,99641.81
2022-12-03T13:48:31.293Z,99641.25
2022-12-03T13:50:59.698Z,99648.53
2022-12-03T13:53:33.223Z,99612.72
2022-12-03T13:56:03.190Z,99644.38
2022-12-03T13:58:30.106Z,99608.09
2022-12-03T14:00:57.050Z,99653.06
2022-12-03T14:03:24.009Z,99654.13
2022-12-03T14:05:50.921Z,99649.00
2022-12-03T14:08:17.919Z,99649.56
2022-12-03T14:10:44.859Z,99650.06
2022-12-03T14:13:11.748Z,99652.16
2022-12-03T14:15:38.703Z,99649.44
2022-12-03T14:18:05.629Z,99653.50
2022-12-03T14:20:34.460Z,99647.28
2022-12-03T14:23:01.398Z,99647.88
2022-12-03T14:25:28.270Z,99629.16
2022-12-03T14:27:55.165Z,99643.78
2022-12-03T14:30:22.049Z,99650.53
2022-12-03T14:32:48.902Z,99653.00
2022-12-03T14:35:15.948Z,99650.53
2022-12-03T14:37:45.030Z,99616.97
2022-12-03T14:40:16.531Z,99652.28
2022-12-03T14:42:46.636Z,99640.38
2022-12-03T14:45:13.615Z,99651.94
2022-12-03T14:47:40.671Z,99653.00
2022-12-03T14:50:08.265Z,99617.31
2022-12-03T14:52:35.249Z,99653.31
2022-12-03T14:55:02.162Z,99659.28
2022-12-03T14:57:29.117Z,99654.00
2022-12-03T14:59:56.259Z,99662.38
2022-12-03T15:02:23.476Z,99658.38
2022-12-03T15:04:50.456Z,99662.44
2022-12-03T15:07:17.334Z,99661.59
2022-12-03T15:09:44.201Z,99672.34
2022-12-03T15:12:11.130Z,99659.41
2022-12-03T15:14:38.212Z,99662.91
2022-12-03T15:17:05.225Z,99666.44
2022-12-03T15:19:32.212Z,99662.84
2022-12-03T15:21:59.109Z,99671.72
2022-12-03T15:24:26.021Z,99661.22
2022-12-03T15:26:53.632Z,99673.03
2022-12-03T15:29:20.674Z,99646.44
2022-12-03T15:31:47.610Z,99664.88
2022-12-03T15:34:20.325Z,99674.81
2022-12-03T15:36:49.192Z,99669.72
2022-12-03T15:39:16.077Z,99667.56
2022-12-03T15:41:42.951Z,99668.41
2022-12-03T15:44:10.013Z,99664.06
2022-12-03T15:46:37.061Z,99666.44
2022-12-03T15:49:04.025Z,99664.00
2022-12-03T15:51:30.891Z,99657.81
2022-12-03T15:53:57.816Z,99660.50
2022-12-03T15:56:24.695Z,99666.84
2022-12-03T15:58:51.607Z,99662.53
2022-12-03T16:01:18.694Z,99656.59
2022-12-03T16:03:45.700Z,99657.41
2022-12-03T16:06:13.015Z,99655.56
2022-12-03T16:08:39.976Z,99649.59
2022-12-03T16:11:06.902Z,99650.66
2022-12-03T16:13:34.384Z,99658.38
2022-12-03T16:16:01.725Z,99661.06
2022-12-03T16:18:28.958Z,99662.94
2022-12-03T16:20:55.814Z,99660.53
2022-12-03T16:23:22.780Z,99662.06
2022-12-03T16:25:49.676Z,99662.78
2022-12-03T16:28:16.714Z,99658.69
2022-12-03T16:30:43.746Z,99654.72
2022-12-03T16:33:10.643Z,99657.19
2022-12-03T16:35:38.077Z,99656.91
2022-12-03T16:38:05.031Z,99656.19
2022-12-03T16:40:31.897Z,99654.97
2022-12-03T16:42:58.793Z,99655.56
2022-12-03T16:46:00.946Z,99652.63
2022-12-03T16:48:31.307Z,99651.22
2022-12-03T16:50:58.246Z,99653.34
2022-12-03T16:53:25.273Z,99653.59
2022-12-03T16:55:52.121Z,99649.84
2022-12-03T16:58:21.345Z,99653.91
2022-12-03T17:00:49.034Z,99646.34
2022-12-03T17:03:17.886Z,99618.19
2022-12-03T17:05:45.189Z,99651.00
2022-12-03T17:08:12.256Z,99644.56
2022-12-03T17:10:39.331Z,99646.66
2022-12-03T17:13:10.480Z,99641.56
2022-12-03T17:15:38.242Z,99643.09
2022-12-03T17:18:05.617Z,99638.56
2022-12-03T17:20:32.989Z,99639.09
2022-12-03T17:23:00.106Z,99637.03
2022-12-03T17:25:27.153Z,99622.75
2022-12-03T17:27:54.293Z,99637.28
2022-12-03T17:30:21.379Z,99629.34
2022-12-03T17:32:50.413Z,99631.22
2022-12-03T17:35:17.650Z,99628.25
2022-12-03T17:37:44.581Z,99601.44
2022-12-03T17:40:12.374Z,99636.09
2022-12-03T17:42:39.413Z,99594.03
2022-12-03T17:45:07.077Z,99628.22
2022-12-03T17:47:34.007Z,99621.50
2022-12-03T17:50:00.856Z,99625.66
2022-12-03T17:52:27.770Z,99630.50
2022-12-03T17:55:13.149Z,99630.41
2022-12-03T17:57:41.541Z,99618.13
2022-12-03T18:00:09.744Z,99635.69
2022-12-03T18:02:39.269Z,99637.78
2022-12-03T18:05:06.396Z,99632.91
2022-12-03T18:07:33.537Z,99633.75
2022-12-03T18:10:00.477Z,99640.41
2022-12-03T18:12:27.452Z,99641.47
2022-12-03T18:14:54.306Z,99638.22
2022-12-03T18:17:21.178Z,99627.72
2022-12-03T18:19:48.126Z,99629.59
2022-12-03T18:22:15.150Z,99623.91
2022-12-03T18:24:44.012Z,99629.50
2022-12-03T18:27:11.865Z,99631.16
2022-12-03T18:29:38.715Z,99630.31
2022-12-03T18:32:27.052Z,99633.00
2022-12-03T18:34:55.171Z,99632.66
2022-12-03T18:37:22.037Z,99636.16
2022-12-03T18:39:48.960Z,99613.63
2022-12-03T18:42:17.371Z,99628.59
2022-12-03T18:44:49.499Z,99627.16
2022-12-03T18:47:21.381Z,99606.31
2022-12-03T18:49:48.334Z,99627.97
2022-12-03T18:52:16.773Z,99632.03
2022-12-03T18:54:43.752Z,99636.81
2022-12-03T18:57:10.723Z,99627.16
2022-12-03T18:59:37.604Z,99633.31
2022-12-03T19:02:05.149Z,99637.88
2022-12-03T19:04:32.073Z,99637.06
2022-12-03T19:06:58.980Z,99632.41
2022-12-03T19:09:26.027Z,99630.31
2022-12-03T19:11:52.883Z,99633.00
2022-12-03T19:14:19.791Z,99635.91
2022-12-03T19:16:46.851Z,99613.38
2022-12-03T19:19:13.762Z,99630.22
2022-12-03T19:21:40.679Z,99627.75
2022-12-03T19:24:24.986Z,99632.91
2022-12-03T19:26:54.701Z,99631.28
2022-12-03T19:29:22.980Z,99628.25
2022-12-03T19:31:52.262Z,99632.59
2022-12-03T19:34:19.312Z,99604.50
2022-12-03T19:36:46.360Z,99633.56
2022-12-03T19:39:13.361Z,99645.31
2022-12-03T19:41:41.919Z,99649.38
2022-12-03T19:44:14.607Z,99646.97
2022-12-03T19:46:41.546Z,99657.09
2022-12-03T19:49:08.424Z,99638.34
2022-12-03T19:51:36.532Z,99644.19
2022-12-03T19:54:04.764Z,99645.00
2022-12-03T19:56:31.615Z,99645.72
2022-12-03T19:58:58.604Z,99648.41
2022-12-03T20:01:27.313Z,99655.91
2022-12-03T20:03:55.095Z,99595.25
2022-12-03T20:06:24.231Z,99652.44
2022-12-03T20:08:51.850Z,99658.06
2022-12-03T20:11:20.845Z,99651.31
2022-12-03T20:13:48.541Z,99619.91
2022-12-03T20:16:15.832Z,99629.84
2022-12-03T20:18:44.159Z,99652.16
2022-12-03T20:21:11.406Z,99643.53
2022-12-03T20:23:38.660Z,99646.00
2022-12-03T20:26:13.023Z,99644.84
2022-12-03T20:28:40.112Z,99633.78
2022-12-03T20:31:13.379Z,99610.56
2022-12-03T20:33:42.487Z,99632.53
2022-12-03T20:36:10.035Z,99638.97
2022-12-03T20:38:37.302Z,99613.25
2022-12-03T20:41:05.859Z,99642.78
2022-12-03T20:43:33.014Z,99629.16
2022-12-03T20:46:32.570Z,99630.53
2022-12-03T20:48:59.652Z,99629.81
2022-12-03T20:51:28.200Z,99627.50
2022-12-03T20:53:55.682Z,99631.72
2022-12-03T20:56:27.333Z,99634.41
2022-12-03T20:58:54.366Z,99623.84
2022-12-03T21:01:26.632Z,99624.97
2022-12-03T21:03:55.023Z,99621.16
2022-12-03T21:06:22.282Z,99626.84
2022-12-03T21:08:49.233Z,99628.72
2022-12-03T21:11:18.586Z,99618.00
2022-12-03T21:13:45.772Z,99625.88
2022-12-03T21:16:17.402Z,99617.84
2022-12-03T21:18:44.384Z,99622.41
2022-12-03T21:21:12.015Z,99618.69
2022-12-03T21:23:38.961Z,99617.13
2022-12-03T21:26:10.451Z,99623.88
2022-12-03T21:28:38.027Z,99612.34
2022-12-03T21:31:06.279Z,99602.19
2022-12-03T21:33:33.282Z,99610.25
2022-12-03T21:36:00.355Z,99604.03
2022-12-03T21:38:27.631Z,99577.44
2022-12-03T21:40:54.649Z,99611.53
2022-12-03T21:43:21.847Z,99579.16
2022-12-03T21:45:49.123Z,99606.47
2022-12-03T21:48:16.257Z,99605.06
2022-12-03T21:50:43.230Z,99602.16
2022-12-03T21:53:10.259Z,99569.25
2022-12-03T21:55:40.781Z,99600.66
2022-12-03T21:58:08.476Z,99608.34
2022-12-03T22:00:35.813Z,99609.19
2022-12-03T22:03:03.195Z,99604.59
2022-12-03T22:05:30.225Z,99594.34
2022-12-03T22:07:57.149Z,99597.34
2022-12-03T22:10:24.021Z,99596.53
2022-12-03T22:12:50.879Z,99603.53
2022-12-03T22:15:19.470Z,99605.06
2022-12-03T22:17:47.022Z,99608.06
2022-12-03T22:20:14.128Z,99605.50
2022-12-03T22:22:41.177Z,99599.28
2022-12-03T22:25:08.246Z,99603.03
2022-12-03T22:27:35.278Z,99601.75
2022-12-03T22:30:02.643Z,99608.97
2022-12-03T22:32:29.611Z,99613.06
2022-12-03T22:34:56.499Z,99606.03
2022-12-03T22:37:23.406Z,99599.66
2022-12-03T22:39:50.328Z,99603.94
2022-12-03T22:42:17.276Z,99599.66
2022-12-03T22:44:44.239Z,99603.94
2022-12-03T22:47:11.096Z,99597.50
2022-12-03T22:49:38.028Z,99562.28
2022-12-03T22:52:04.937Z,99598.91
2022-12-03T22:54:31.789Z,99590.03
2022-12-03T22:56:58.665Z,99596.81
2022-12-03T22:59:25.555Z,99596.53
2022-12-03T23:01:52.433Z,99599.31
2022-12-03T23:04:19.447Z,99586.72
2022-12-03T23:06:46.419Z,99558.16
2022-12-03T23:09:13.339Z,99601.41
2022-12-03T23:11:40.263Z,99602.06
2022-12-03T23:14:07.153Z,99593.00
2022-12-03T23:16:34.318Z,99590.03
2022-12-03T23:19:01.487Z,99591.25
2022-12-03T23:21:30.615Z,99598.47
2022-12-03T23:24:01.553Z,99584.03
2022-12-03T23:26:28.863Z,99589.47
2022-12-03T23:28:56.110Z,99572.25
2022-12-03T23:31:25.144Z,99585.06
2022-12-03T23:33:52.413Z,99581.00
2022-12-03T23:36:19.859Z,99578.66
2022-12-03T23:38:46.811Z,99545.66
2022-12-03T23:41:15.029Z,99565.50
2022-12-03T23:43:42.097Z,99565.16
2022-12-03T23:46:10.807Z,99571.09
2022-12-03T23:48:37.816Z,99574.81
2022-12-03T23:51:06.292Z,99572.41
2022-12-03T23:53:33.197Z,99568.66
2022-12-03T23:56:00.084Z,99579.16
2022-12-03T23:58:26.955Z,99568.16
